Aviation Digital Data Service (ADDS)

Output produced by METARs form (1429 UTC 21 May 2019)
found at http://www.aviationweather.gov/metar/data/
 
METAR text: OPMT 210900Z 23010KT 5000 HZ SCT200 39/16 Q1006 NOSIG
Conditions at: OPMT (MULTAN , PK) observed 0900 UTC 21 May 2019
Temperature: 39.0°C (102°F)
Dewpoint: 16.0°C (61°F) [RH = 26%]
Pressure (altimeter): 29.70 inches Hg (1006.0 mb)
Winds: from the SW (230 degrees) at 12 MPH (10 knots; 5.1 m/s)
Visibility: 3 miles ( 5 km)
Ceiling: at least 12,000 feet AGL
Clouds: scattered clouds at 20000 feet AGL
Weather: HZ  (haze)

METAR text: OPMT 210030Z 00000KT 4000 FU SCT200 28/20 Q1007 NOSIG
Conditions at: OPMT (MULTAN , PK) observed 0030 UTC 21 May 2019
Temperature: 28.0°C (82°F)
Dewpoint: 20.0°C (68°F) [RH = 62%]
Pressure (altimeter): 29.73 inches Hg (1007.0 mb)
Winds: calm
Visibility: 2.49 miles (4.01 km)
Ceiling: at least 12,000 feet AGL
Clouds: scattered clouds at 20000 feet AGL
Weather: FU  (smoke)

METAR text: OPMT 210000Z 05004KT 4000 FU SCT120 28/20 Q1006 NOSIG
Conditions at: OPMT (MULTAN , PK) observed 0000 UTC 21 May 2019
Temperature: 28.0°C (82°F)
Dewpoint: 20.0°C (68°F) [RH = 62%]
Pressure (altimeter): 29.70 inches Hg (1006.0 mb)
Winds: from the NE (50 degrees) at 5 MPH (4 knots; 2.1 m/s)
Visibility: 2.49 miles (4.01 km)
Ceiling: at least 12,000 feet AGL
Clouds: scattered clouds at 12000 feet AGL
Weather: FU  (smoke)

METAR text: OPMT 202330Z 00000KT 4000 FU SCT120 28/20 Q1006 NOSIG
Conditions at: OPMT (MULTAN , PK) observed 2330 UTC 20 May 2019
Temperature: 28.0°C (82°F)
Dewpoint: 20.0°C (68°F) [RH = 62%]
Pressure (altimeter): 29.70 inches Hg (1006.0 mb)
Winds: calm
Visibility: 2.49 miles (4.01 km)
Ceiling: at least 12,000 feet AGL
Clouds: scattered clouds at 12000 feet AGL
Weather: FU  (smoke)

METAR text: OPMT 202230Z 00000KT 4000 FU FEW040 SCT100 29/19 Q1006 NOSIG
Conditions at: OPMT (MULTAN , PK) observed 2230 UTC 20 May 2019
Temperature: 29.0°C (84°F)
Dewpoint: 19.0°C (66°F) [RH = 55%]
Pressure (altimeter): 29.70 inches Hg (1006.0 mb)
Winds: calm
Visibility: 2.49 miles (4.01 km)
Ceiling: at least 12,000 feet AGL
Clouds: few clouds at 4000 feet AGL
scattered clouds at 10000 feet AGL
Weather: FU  (smoke)

METAR text: OPMT 202200Z 00000KT 4000 HZ FEW040 SCT100 29/19 Q1006 NOSIG
Conditions at: OPMT (MULTAN , PK) observed 2200 UTC 20 May 2019
Temperature: 29.0°C (84°F)
Dewpoint: 19.0°C (66°F) [RH = 55%]
Pressure (altimeter): 29.70 inches Hg (1006.0 mb)
Winds: calm
Visibility: 2.49 miles (4.01 km)
Ceiling: at least 12,000 feet AGL
Clouds: few clouds at 4000 feet AGL
scattered clouds at 10000 feet AGL
Weather: HZ  (haze)

METAR text: OPMT 202130Z 00000KT 4000 FU FEW040 SCT100 29/19 Q1006 NOSIG
Conditions at: OPMT (MULTAN , PK) observed 2130 UTC 20 May 2019
Temperature: 29.0°C (84°F)
Dewpoint: 19.0°C (66°F) [RH = 55%]
Pressure (altimeter): 29.70 inches Hg (1006.0 mb)
Winds: calm
Visibility: 2.49 miles (4.01 km)
Ceiling: at least 12,000 feet AGL
Clouds: few clouds at 4000 feet AGL
scattered clouds at 10000 feet AGL
Weather: FU  (smoke)

METAR text: OPMT 202030Z 00000KT 4000 FU FEW040 SCT100 29/19 Q1007 NOSIG
Conditions at: OPMT (MULTAN , PK) observed 2030 UTC 20 May 2019
Temperature: 29.0°C (84°F)
Dewpoint: 19.0°C (66°F) [RH = 55%]
Pressure (altimeter): 29.73 inches Hg (1007.0 mb)
Winds: calm
Visibility: 2.49 miles (4.01 km)
Ceiling: at least 12,000 feet AGL
Clouds: few clouds at 4000 feet AGL
scattered clouds at 10000 feet AGL
Weather: FU  (smoke)

METAR text: OPMT 202000Z 00000KT 4000 HZ FEW040 SCT100 29/19 Q1007 NOSIG
Conditions at: OPMT (MULTAN , PK) observed 2000 UTC 20 May 2019
Temperature: 29.0°C (84°F)
Dewpoint: 19.0°C (66°F) [RH = 55%]
Pressure (altimeter): 29.73 inches Hg (1007.0 mb)
Winds: calm
Visibility: 2.49 miles (4.01 km)
Ceiling: at least 12,000 feet AGL
Clouds: few clouds at 4000 feet AGL
scattered clouds at 10000 feet AGL
Weather: HZ  (haze)

METAR text: OPMT 201930Z 00000KT 4000 FU FEW040 SCT100 29/19 Q1007 NOSIG
Conditions at: OPMT (MULTAN , PK) observed 1930 UTC 20 May 2019
Temperature: 29.0°C (84°F)
Dewpoint: 19.0°C (66°F) [RH = 55%]
Pressure (altimeter): 29.73 inches Hg (1007.0 mb)
Winds: calm
Visibility: 2.49 miles (4.01 km)
Ceiling: at least 12,000 feet AGL
Clouds: few clouds at 4000 feet AGL
scattered clouds at 10000 feet AGL
Weather: FU  (smoke)

METAR text: OPMT 201830Z 00000KT 4000 HZ BKN100 30/19 Q1007 NOSIG
Conditions at: OPMT (MULTAN , PK) observed 1830 UTC 20 May 2019
Temperature: 30.0°C (86°F)
Dewpoint: 19.0°C (66°F) [RH = 52%]
Pressure (altimeter): 29.73 inches Hg (1007.0 mb)
Winds: calm
Visibility: 2.49 miles (4.01 km)
Ceiling: 10000 feet AGL
Clouds: broken clouds at 10000 feet AGL
Weather: HZ  (haze)

METAR text: OPMT 201800Z 00000KT 4000 HZ SCT120 31/18 Q1007 NOSIG
Conditions at: OPMT (MULTAN , PK) observed 1800 UTC 20 May 2019
Temperature: 31.0°C (88°F)
Dewpoint: 18.0°C (64°F) [RH = 46%]
Pressure (altimeter): 29.73 inches Hg (1007.0 mb)
Winds: calm
Visibility: 2.49 miles (4.01 km)
Ceiling: at least 12,000 feet AGL
Clouds: scattered clouds at 12000 feet AGL
Weather: HZ  (haze)

METAR text: OPMT 201730Z 00000KT 4000 HZ FEW120 31/18 Q1007 NOSIG
Conditions at: OPMT (MULTAN , PK) observed 1730 UTC 20 May 2019
Temperature: 31.0°C (88°F)
Dewpoint: 18.0°C (64°F) [RH = 46%]
Pressure (altimeter): 29.73 inches Hg (1007.0 mb)
Winds: calm
Visibility: 2.49 miles (4.01 km)
Ceiling: at least 12,000 feet AGL
Clouds: few clouds at 12000 feet AGL
Weather: HZ  (haze)